createdAt,value
2019-05-02T00:01:18.599Z,13.93
2019-05-02T00:03:48.547Z,13.87
2019-05-02T00:06:18.348Z,13.76
2019-05-02T00:08:48.376Z,13.65
2019-05-02T00:11:24.863Z,13.53
2019-05-02T00:13:55.358Z,13.46
2019-05-02T00:16:25.246Z,13.35
2019-05-02T00:18:55.142Z,13.29
2019-05-02T00:21:25.024Z,13.18
2019-05-02T00:23:59.306Z,13.17
2019-05-02T00:26:26.276Z,13.06
2019-05-02T00:28:56.040Z,12.94
2019-05-02T00:31:25.887Z,12.93
2019-05-02T00:33:55.632Z,12.89
2019-05-02T00:36:25.356Z,12.81
2019-05-02T00:38:55.096Z,12.79
2019-05-02T00:41:24.794Z,12.76
2019-05-02T00:43:54.500Z,12.67
2019-05-02T00:46:24.278Z,12.58
2019-05-02T00:48:59.752Z,12.56
2019-05-02T00:51:28.089Z,12.60
2019-05-02T00:53:57.969Z,12.51
2019-05-02T00:56:27.743Z,12.49
2019-05-02T00:59:02.162Z,12.42
2019-05-02T01:01:29.548Z,12.34
2019-05-02T01:04:04.696Z,12.34
2019-05-02T01:06:34.639Z,12.33
2019-05-02T01:09:10.975Z,12.36
2019-05-02T01:11:38.266Z,12.31
2019-05-02T01:14:08.049Z,12.22
2019-05-02T01:16:38.856Z,12.17
2019-05-02T01:19:12.196Z,12.16
2019-05-02T01:21:40.180Z,12.07
2019-05-02T01:24:10.115Z,12.04
2019-05-02T01:26:50.398Z,12.03
2019-05-02T01:29:33.790Z,12.00
2019-05-02T01:32:05.159Z,11.94
2019-05-02T01:34:42.507Z,11.90
2019-05-02T01:37:21.151Z,11.80
2019-05-02T01:39:51.487Z,11.77
2019-05-02T01:42:21.260Z,11.68
2019-05-02T01:44:50.978Z,11.69
2019-05-02T01:47:20.622Z,11.63
2019-05-02T01:49:51.950Z,11.57
2019-05-02T01:52:23.657Z,11.50
2019-05-02T01:54:53.071Z,11.47
2019-05-02T01:57:22.775Z,11.46
2019-05-02T01:59:52.556Z,11.44
2019-05-02T02:02:22.423Z,11.41
2019-05-02T02:04:56.548Z,11.33
2019-05-02T02:07:23.560Z,11.23
2019-05-02T02:09:53.217Z,11.19
2019-05-02T02:12:23.368Z,11.18
2019-05-02T02:14:53.688Z,11.15
2019-05-02T02:17:24.550Z,11.08
2019-05-02T02:19:55.715Z,10.99
2019-05-02T02:22:33.801Z,11.01
2019-05-02T02:25:19.345Z,11.00
2019-05-02T02:27:49.096Z,10.96
2019-05-02T02:30:24.444Z,10.94
2019-05-02T02:32:50.304Z,10.91
2019-05-02T02:35:20.159Z,10.89
2019-05-02T02:37:52.963Z,10.85
2019-05-02T02:40:21.289Z,10.79
2019-05-02T02:42:51.067Z,10.76
2019-05-02T02:45:57.629Z,10.74
2019-05-02T02:48:25.352Z,10.72
2019-05-02T02:50:55.141Z,10.66
2019-05-02T02:53:30.892Z,10.63
2019-05-02T02:56:07.152Z,10.66
2019-05-02T02:58:45.793Z,10.60
2019-05-02T03:01:08.691Z,10.58
2019-05-02T03:03:38.513Z,10.60
2019-05-02T03:06:08.652Z,10.55
2019-05-02T03:08:46.661Z,10.50
2019-05-02T03:11:22.720Z,10.45
2019-05-02T03:13:52.678Z,10.39
2019-05-02T03:16:23.687Z,10.41
2019-05-02T03:18:53.574Z,10.40
2019-05-02T03:21:23.529Z,10.39
2019-05-02T03:24:01.680Z,10.34
2019-05-02T03:26:24.874Z,10.33
2019-05-02T03:28:58.443Z,10.28
2019-05-02T03:31:30.521Z,10.27
2019-05-02T03:34:00.533Z,10.17
2019-05-02T03:36:35.607Z,10.13
2019-05-02T03:39:13.330Z,10.06
2019-05-02T03:41:33.041Z,10.02
2019-05-02T03:44:11.242Z,9.95
2019-05-02T03:46:35.327Z,9.94
2019-05-02T03:49:07.302Z,9.91
2019-05-02T03:51:36.745Z,9.84
2019-05-02T03:54:09.984Z,9.79
2019-05-02T03:56:38.545Z,9.79
2019-05-02T03:59:08.705Z,9.69
2019-05-02T04:01:41.354Z,9.66
2019-05-02T04:04:14.182Z,9.70
2019-05-02T04:06:45.165Z,9.72
2019-05-02T04:09:42.411Z,9.64
2019-05-02T04:12:18.677Z,9.64
2019-05-02T04:14:41.616Z,9.61
2019-05-02T04:17:12.556Z,9.52
2019-05-02T04:19:42.858Z,9.54
2019-05-02T04:22:14.211Z,9.58
2019-05-02T04:24:47.928Z,9.57
2019-05-02T04:27:17.204Z,9.59
2019-05-02T04:29:47.576Z,9.64
2019-05-02T04:32:17.838Z,9.68
2019-05-02T04:34:54.951Z,9.69
2019-05-02T04:37:19.869Z,9.71
2019-05-02T04:39:53.725Z,9.73
2019-05-02T04:42:23.443Z,9.78
2019-05-02T04:45:12.051Z,9.80
2019-05-02T04:47:25.156Z,9.83
2019-05-02T04:49:57.974Z,9.87
2019-05-02T04:52:28.830Z,9.83
2019-05-02T04:55:08.176Z,9.90
2019-05-02T04:57:36.259Z,9.98
2019-05-02T05:00:08.605Z,9.96
2019-05-02T05:02:36.560Z,10.02
2019-05-02T05:05:10.144Z,10.01
2019-05-02T05:07:45.805Z,10.01
2019-05-02T05:10:12.373Z,10.06
2019-05-02T05:12:42.638Z,10.07
2019-05-02T05:15:22.657Z,10.13
2019-05-02T05:17:44.000Z,10.16
2019-05-02T05:20:15.844Z,10.22
2019-05-02T05:22:47.912Z,10.24
2019-05-02T05:25:34.894Z,10.20
2019-05-02T05:28:06.068Z,10.26
2019-05-02T05:30:44.714Z,10.35
2019-05-02T05:33:10.349Z,10.39
2019-05-02T05:35:43.237Z,10.41
2019-05-02T05:38:12.530Z,10.48
2019-05-02T05:40:42.826Z,10.57
2019-05-02T05:43:15.853Z,10.69
2019-05-02T05:45:53.355Z,10.81
2019-05-02T05:48:18.413Z,10.93
2019-05-02T05:50:48.724Z,11.05
2019-05-02T05:53:21.327Z,11.17
2019-05-02T05:55:53.676Z,11.32
2019-05-02T05:58:23.096Z,11.50
2019-05-02T06:00:55.608Z,11.65
2019-05-02T06:03:24.416Z,11.83
2019-05-02T06:05:54.645Z,11.99
2019-05-02T06:08:25.143Z,12.16
2019-05-02T06:10:55.336Z,12.33
2019-05-02T06:13:25.567Z,12.46
2019-05-02T06:16:02.602Z,12.58
2019-05-02T06:18:28.456Z,12.73
2019-05-02T06:21:03.411Z,12.83
2019-05-02T06:23:31.015Z,12.92
2019-05-02T06:26:07.947Z,12.97
2019-05-02T06:28:36.426Z,13.10
2019-05-02T06:31:07.140Z,13.25
2019-05-02T06:33:38.079Z,13.39
2019-05-02T06:36:08.212Z,13.55
2019-05-02T06:38:38.389Z,13.67
2019-05-02T06:41:08.843Z,13.68
2019-05-02T06:43:41.240Z,13.79
2019-05-02T06:46:16.222Z,13.92
2019-05-02T06:48:42.684Z,13.79
2019-05-02T06:51:19.470Z,14.04
2019-05-02T06:53:46.929Z,14.24
2019-05-02T06:56:16.093Z,14.36
2019-05-02T06:58:46.512Z,14.43
2019-05-02T07:01:21.427Z,14.50
2019-05-02T07:03:48.005Z,14.60
2019-05-02T07:06:18.604Z,14.64
2019-05-02T07:08:49.032Z,14.75
2019-05-02T07:11:19.443Z,14.80
2019-05-02T07:13:49.713Z,14.84
2019-05-02T07:16:37.589Z,14.88
2019-05-02T07:19:01.876Z,15.01
2019-05-02T07:21:32.011Z,15.07
2019-05-02T07:24:02.297Z,15.13
2019-05-02T07:26:32.708Z,15.20
2019-05-02T07:29:03.068Z,15.19
2019-05-02T07:31:33.582Z,15.18
2019-05-02T07:34:08.085Z,15.06
2019-05-02T07:36:38.210Z,14.94
2019-05-02T07:39:10.868Z,14.95
2019-05-02T07:41:41.150Z,14.97
2019-05-02T07:44:11.425Z,14.95
2019-05-02T07:46:51.523Z,14.99
2019-05-02T07:49:13.671Z,15.07
2019-05-02T07:51:44.147Z,15.16
2019-05-02T07:54:14.351Z,15.28
2019-05-02T07:56:48.629Z,15.43
2019-05-02T07:59:18.593Z,15.60
2019-05-02T08:01:49.701Z,15.78
2019-05-02T08:04:20.344Z,15.84
2019-05-02T08:06:50.604Z,15.89
2019-05-02T08:09:21.093Z,16.03
2019-05-02T08:11:51.605Z,16.18
2019-05-02T08:14:21.704Z,16.13
2019-05-02T08:17:04.720Z,16.32
2019-05-02T08:19:23.603Z,16.40
2019-05-02T08:21:53.946Z,16.46
2019-05-02T08:24:24.142Z,16.46
2019-05-02T08:27:07.991Z,16.58
2019-05-02T08:29:38.543Z,16.75
2019-05-02T08:32:08.880Z,16.92
2019-05-02T08:34:39.137Z,17.12
2019-05-02T08:37:09.480Z,17.34
2019-05-02T08:39:39.812Z,17.46
2019-05-02T08:42:10.075Z,17.59
2019-05-02T08:44:50.841Z,17.66
2019-05-02T08:47:18.671Z,17.42
2019-05-02T08:49:44.222Z,17.42
2019-05-02T08:52:14.479Z,17.37
2019-05-02T08:54:44.737Z,17.51
2019-05-02T08:57:14.967Z,17.71
2019-05-02T08:59:45.297Z,17.87
2019-05-02T09:02:15.471Z,17.92
2019-05-02T09:04:57.660Z,18.08
2019-05-02T09:07:17.692Z,18.18
2019-05-02T09:09:47.927Z,18.01
2019-05-02T09:12:20.145Z,17.93
2019-05-02T09:14:51.975Z,17.94
2019-05-02T09:17:33.184Z,17.96
2019-05-02T09:20:02.189Z,17.99
2019-05-02T09:22:25.860Z,18.14
2019-05-02T09:24:56.200Z,18.31
2019-05-02T09:27:26.615Z,18.07
2019-05-02T09:29:57.037Z,18.06
2019-05-02T09:32:27.531Z,17.86
2019-05-02T09:35:02.351Z,17.40
2019-05-02T09:37:28.964Z,17.73
2019-05-02T09:39:59.300Z,17.94
2019-05-02T09:42:29.768Z,18.02
2019-05-02T09:44:59.959Z,18.08
2019-05-02T09:47:33.206Z,17.94
2019-05-02T09:50:20.584Z,17.69
2019-05-02T09:52:49.767Z,17.84
2019-05-02T09:55:22.645Z,18.20
2019-05-02T09:57:53.066Z,18.53
2019-05-02T10:00:36.448Z,18.87
2019-05-02T10:03:07.559Z,18.78
2019-05-02T10:05:37.087Z,19.10
2019-05-02T10:08:10.734Z,19.17
2019-05-02T10:10:44.200Z,19.12
2019-05-02T10:13:12.206Z,19.18
2019-05-02T10:15:42.765Z,19.11
2019-05-02T10:18:14.751Z,19.32
2019-05-02T10:20:45.177Z,19.30
2019-05-02T10:23:19.433Z,19.17
2019-05-02T10:25:47.047Z,19.37
2019-05-02T10:28:17.470Z,19.04
2019-05-02T10:30:52.694Z,19.31
2019-05-02T10:33:18.837Z,19.40
2019-05-02T10:35:52.529Z,19.27
2019-05-02T10:38:22.876Z,19.11
2019-05-02T10:40:54.801Z,19.13
2019-05-02T10:43:25.217Z,19.04
2019-05-02T10:45:56.781Z,18.93
2019-05-02T10:48:28.768Z,18.81
2019-05-02T10:51:03.603Z,19.13
2019-05-02T10:53:34.003Z,18.93
2019-05-02T10:56:04.293Z,18.94
2019-05-02T10:58:35.764Z,18.84
2019-05-02T11:01:08.370Z,18.79
2019-05-02T11:03:46.208Z,18.88
2019-05-02T11:06:12.614Z,19.03
2019-05-02T11:08:46.023Z,18.87
2019-05-02T11:11:14.210Z,19.18
2019-05-02T11:13:45.824Z,19.11
2019-05-02T11:16:21.746Z,19.13
2019-05-02T11:18:59.508Z,19.43
2019-05-02T11:21:32.020Z,19.79
2019-05-02T11:24:02.625Z,20.05
2019-05-02T11:26:33.130Z,19.90
2019-05-02T11:29:03.596Z,19.84
2019-05-02T11:31:33.989Z,19.90
2019-05-02T11:34:04.297Z,19.94
2019-05-02T11:36:34.547Z,19.77
2019-05-02T11:39:15.877Z,19.88
2019-05-02T11:41:38.044Z,19.65
2019-05-02T11:44:08.095Z,19.39
2019-05-02T11:46:42.890Z,19.51
2019-05-02T11:49:12.096Z,19.77
2019-05-02T11:51:42.347Z,19.89
2019-05-02T11:54:13.089Z,19.40
2019-05-02T11:56:49.028Z,19.36
2019-05-02T11:59:15.518Z,19.56
2019-05-02T12:01:57.612Z,19.33
2019-05-02T12:04:19.192Z,19.23
2019-05-02T12:06:56.008Z,19.52
2019-05-02T12:09:22.325Z,19.35
2019-05-02T12:11:56.646Z,18.89
2019-05-02T12:14:27.450Z,19.23
2019-05-02T12:16:56.682Z,18.98
2019-05-02T12:19:26.788Z,19.05
2019-05-02T12:21:58.018Z,18.93
2019-05-02T12:24:28.108Z,18.56
2019-05-02T12:26:58.253Z,18.10
2019-05-02T12:29:28.564Z,18.23
2019-05-02T12:31:58.956Z,18.39
2019-05-02T12:34:29.170Z,18.32
2019-05-02T12:36:59.462Z,17.91
2019-05-02T12:39:31.634Z,17.98
2019-05-02T12:42:03.112Z,17.50
2019-05-02T12:44:33.169Z,17.50
2019-05-02T12:47:03.465Z,17.27
2019-05-02T12:49:33.769Z,17.23
2019-05-02T12:52:04.042Z,17.56
2019-05-02T12:54:34.391Z,17.25
2019-05-02T12:57:04.869Z,17.47
2019-05-02T12:59:35.160Z,17.29
2019-05-02T13:02:06.995Z,17.23
2019-05-02T13:04:37.404Z,16.92
2019-05-02T13:07:07.645Z,17.29
2019-05-02T13:09:38.026Z,17.45
2019-05-02T13:12:08.951Z,17.28
2019-05-02T13:14:39.261Z,17.24
2019-05-02T13:17:09.499Z,17.42
2019-05-02T13:19:41.413Z,17.58
2019-05-02T13:22:16.251Z,17.61
2019-05-02T13:24:52.332Z,17.65
2019-05-02T13:27:23.073Z,17.70
2019-05-02T13:29:53.642Z,18.13
2019-05-02T13:32:37.749Z,18.22
2019-05-02T13:35:18.340Z,18.29
2019-05-02T13:37:49.421Z,18.21
2019-05-02T13:40:36.681Z,18.25
2019-05-02T13:43:07.295Z,18.01
2019-05-02T13:45:39.430Z,17.88
2019-05-02T13:48:12.096Z,18.31
2019-05-02T13:50:42.393Z,18.19
2019-05-02T13:53:13.405Z,18.25
2019-05-02T13:55:45.660Z,18.17
2019-05-02T13:58:21.532Z,18.00
2019-05-02T14:00:49.902Z,18.12
2019-05-02T14:03:20.343Z,18.06
2019-05-02T14:05:53.345Z,17.62
2019-05-02T14:08:27.525Z,17.82
2019-05-02T14:11:01.845Z,17.55
2019-05-02T14:13:31.939Z,17.50
2019-05-02T14:16:02.362Z,17.53
2019-05-02T14:18:33.626Z,17.47
2019-05-02T14:21:04.268Z,17.38
2019-05-02T14:23:34.727Z,17.28
2019-05-02T14:26:05.081Z,17.19
2019-05-02T14:28:36.395Z,17.27
2019-05-02T14:31:07.269Z,17.36
2019-05-02T14:33:39.133Z,17.39
2019-05-02T14:36:11.493Z,17.19
2019-05-02T14:38:41.720Z,17.40
2019-05-02T14:41:13.726Z,17.70
2019-05-02T14:43:53.298Z,17.57
2019-05-02T14:46:29.041Z,17.71
2019-05-02T14:48:57.766Z,17.70
2019-05-02T14:51:28.244Z,17.57
2019-05-02T14:54:03.547Z,17.62
2019-05-02T14:56:37.604Z,17.61
2019-05-02T14:59:09.192Z,17.65
2019-05-02T15:01:41.986Z,17.19
2019-05-02T15:04:12.939Z,17.09
2019-05-02T15:06:47.282Z,17.24
2019-05-02T15:09:16.774Z,17.26
2019-05-02T15:12:02.386Z,17.11
2019-05-02T15:14:34.007Z,17.04
2019-05-02T15:17:04.801Z,16.78
2019-05-02T15:19:35.298Z,17.01
2019-05-02T15:22:06.289Z,16.72
2019-05-02T15:24:38.081Z,16.89
2019-05-02T15:27:17.304Z,17.05
2019-05-02T15:29:41.984Z,16.97
2019-05-02T15:32:17.724Z,16.70
2019-05-02T15:34:55.415Z,16.61
2019-05-02T15:37:25.988Z,16.67
2019-05-02T15:42:28.397Z,16.98
2019-05-02T15:45:01.870Z,16.77
2019-05-02T15:47:32.055Z,16.92
2019-05-02T15:50:02.993Z,16.80
2019-05-02T15:52:35.533Z,16.97
2019-05-02T15:55:07.822Z,16.80
2019-05-02T15:57:42.847Z,16.80
2019-05-02T16:00:15.476Z,16.84
2019-05-02T16:02:44.600Z,16.72
2019-05-02T16:05:16.086Z,16.66
2019-05-02T16:07:46.883Z,16.86
2019-05-02T16:10:17.675Z,16.80
2019-05-02T16:12:49.542Z,16.89
2019-05-02T16:15:24.612Z,16.91
2019-05-02T16:17:52.283Z,16.87
2019-05-02T16:20:32.267Z,16.64
2019-05-02T16:23:02.027Z,16.66
2019-05-02T16:26:08.720Z,16.50
2019-05-02T16:28:42.084Z,16.58
2019-05-02T16:31:12.465Z,16.50
2019-05-02T16:33:42.779Z,16.64
2019-05-02T16:36:12.650Z,16.63
2019-05-02T16:38:43.123Z,16.49
2019-05-02T16:41:13.453Z,16.56
2019-05-02T16:43:43.871Z,16.59
2019-05-02T16:46:15.295Z,16.62
2019-05-02T16:48:45.714Z,16.33
2019-05-02T16:51:29.984Z,16.50
2019-05-02T16:53:47.201Z,16.42
2019-05-02T16:56:17.635Z,16.06
2019-05-02T16:58:47.976Z,16.12
2019-05-02T17:01:24.635Z,16.06
2019-05-02T17:03:50.313Z,15.93
2019-05-02T17:06:22.404Z,15.78
2019-05-02T17:08:57.446Z,15.71
2019-05-02T17:11:34.172Z,15.45
2019-05-02T17:14:02.428Z,15.36
2019-05-02T17:16:32.871Z,15.21
2019-05-02T17:19:03.183Z,15.15
2019-05-02T17:21:52.347Z,14.97
2019-05-02T17:24:05.530Z,14.95
2019-05-02T17:26:35.867Z,14.88
2019-05-02T17:29:06.025Z,14.67
2019-05-02T17:31:36.337Z,14.34
2019-05-02T17:34:06.860Z,14.38
2019-05-02T17:36:37.266Z,14.18
2019-05-02T17:39:09.393Z,14.06
2019-05-02T17:41:42.253Z,14.12
2019-05-02T17:44:12.872Z,14.11
2019-05-02T17:46:42.908Z,13.89
2019-05-02T17:49:13.436Z,13.85
2019-05-02T17:52:05.566Z,13.83
2019-05-02T17:54:33.550Z,13.95
2019-05-02T17:57:03.925Z,13.83
2019-05-02T17:59:37.490Z,13.67
2019-05-02T18:02:06.688Z,13.66
2019-05-02T18:04:38.163Z,13.54
2019-05-02T18:07:08.404Z,13.58
2019-05-02T18:09:38.628Z,13.72
2019-05-02T18:12:12.558Z,13.72
2019-05-02T18:14:42.128Z,13.64
2019-05-02T18:17:12.798Z,13.43
2019-05-02T18:19:43.349Z,13.49
2019-05-02T18:22:23.506Z,13.58
2019-05-02T18:24:46.436Z,13.59
2019-05-02T18:27:16.857Z,13.50
2019-05-02T18:29:46.884Z,13.52
2019-05-02T18:32:17.632Z,13.54
2019-05-02T18:34:49.004Z,13.62
2019-05-02T18:37:19.180Z,13.51
2019-05-02T18:39:53.352Z,13.41
2019-05-02T18:42:21.913Z,13.55
2019-05-02T18:44:53.112Z,13.45
2019-05-02T18:47:24.941Z,13.37
2019-05-02T18:50:00.710Z,13.33
2019-05-02T18:52:36.365Z,13.24
2019-05-02T18:54:58.510Z,13.51
2019-05-02T18:57:29.661Z,13.35
2019-05-02T19:00:01.852Z,13.28
2019-05-02T19:02:35.404Z,13.54
2019-05-02T19:05:06.040Z,13.57
2019-05-02T19:07:35.851Z,13.49
2019-05-02T19:10:07.911Z,13.28
2019-05-02T19:12:37.839Z,13.46
2019-05-02T19:15:08.644Z,13.32
2019-05-02T19:17:40.407Z,13.24
2019-05-02T19:20:29.764Z,13.27
2019-05-02T19:22:59.445Z,13.17
2019-05-02T19:25:29.124Z,13.18
2019-05-02T19:27:59.309Z,13.08
2019-05-02T19:30:33.503Z,13.02
2019-05-02T19:33:07.512Z,13.07
2019-05-02T19:35:37.573Z,12.98
2019-05-02T19:38:05.819Z,13.04
2019-05-02T19:40:35.461Z,13.09
2019-05-02T19:43:07.711Z,13.06
2019-05-02T19:45:36.885Z,13.11
2019-05-02T19:48:07.048Z,12.98
2019-05-02T19:50:43.742Z,12.87
2019-05-02T19:53:17.991Z,12.72
2019-05-02T19:55:43.072Z,12.85
2019-05-02T19:58:12.772Z,12.83
2019-05-02T20:00:46.164Z,12.71
2019-05-02T20:03:21.762Z,12.50
2019-05-02T20:05:48.347Z,12.48
2019-05-02T20:08:21.193Z,12.26
2019-05-02T20:10:49.372Z,12.19
2019-05-02T20:13:27.923Z,12.35
2019-05-02T20:15:57.131Z,12.47
2019-05-02T20:18:28.239Z,12.52
2019-05-02T20:21:02.471Z,12.33
2019-05-02T20:23:35.531Z,12.25
2019-05-02T20:26:04.168Z,12.37
2019-05-02T20:28:33.903Z,12.37
2019-05-02T20:31:03.536Z,12.32
2019-05-02T20:33:33.322Z,12.38
2019-05-02T20:36:03.069Z,12.34
2019-05-02T20:38:32.800Z,12.47
2019-05-02T20:41:02.954Z,12.25
2019-05-02T20:43:32.846Z,12.11
2019-05-02T20:46:02.875Z,12.23
2019-05-02T20:48:32.714Z,12.27
2019-05-02T20:51:02.829Z,12.32
2019-05-02T20:53:35.152Z,12.22
2019-05-02T20:56:05.027Z,12.37
2019-05-02T20:58:34.647Z,12.33
2019-05-02T21:01:08.547Z,12.28
2019-05-02T21:03:35.944Z,12.22
2019-05-02T21:06:37.577Z,12.15
2019-05-02T21:09:02.190Z,12.32
2019-05-02T21:11:32.457Z,12.20
2019-05-02T21:14:02.390Z,12.10
2019-05-02T21:16:32.295Z,12.07
2019-05-02T21:19:02.307Z,12.30
2019-05-02T21:21:33.049Z,12.00
2019-05-02T21:24:02.828Z,12.04
2019-05-02T21:26:35.061Z,12.24
2019-05-02T21:29:04.775Z,12.19
2019-05-02T21:31:34.400Z,12.12
2019-05-02T21:34:04.125Z,12.07
2019-05-02T21:36:33.905Z,12.18
2019-05-02T21:39:03.667Z,12.16
2019-05-02T21:41:33.326Z,12.25
2019-05-02T21:44:03.072Z,12.30
2019-05-02T21:46:32.804Z,12.17
2019-05-02T21:49:04.085Z,12.23
2019-05-02T21:51:44.082Z,12.17
2019-05-02T21:54:22.595Z,12.09
2019-05-02T21:56:59.866Z,12.18
2019-05-02T21:59:29.639Z,12.03
2019-05-02T22:02:02.263Z,12.17
2019-05-02T22:04:31.821Z,12.09
2019-05-02T22:07:01.806Z,12.05
2019-05-02T22:09:32.314Z,12.19
2019-05-02T22:12:02.542Z,12.20
2019-05-02T22:14:32.954Z,12.05
2019-05-02T22:17:03.017Z,12.07
2019-05-02T22:19:32.326Z,12.13
2019-05-02T22:22:02.121Z,12.13
2019-05-02T22:24:31.835Z,12.23
2019-05-02T22:27:02.009Z,12.20
2019-05-02T22:29:32.481Z,12.20
2019-05-02T22:32:02.966Z,12.02
2019-05-02T22:34:32.852Z,12.10
2019-05-02T22:37:04.392Z,11.85
2019-05-02T22:39:38.481Z,11.62
2019-05-02T22:42:08.323Z,11.64
2019-05-02T22:44:37.995Z,11.66
2019-05-02T22:47:07.720Z,11.60
2019-05-02T22:49:37.453Z,11.67
2019-05-02T22:52:07.184Z,11.64
2019-05-02T22:54:36.857Z,11.60
2019-05-02T22:57:06.656Z,11.56
2019-05-02T22:59:36.564Z,11.70
2019-05-02T23:02:05.499Z,11.54
2019-05-02T23:04:35.306Z,11.55
2019-05-02T23:07:05.050Z,11.45
2019-05-02T23:09:34.778Z,11.41
2019-05-02T23:12:04.862Z,11.68
2019-05-02T23:14:34.720Z,11.66
2019-05-02T23:17:04.292Z,11.67
2019-05-02T23:19:34.054Z,11.52
2019-05-02T23:22:03.834Z,11.34
2019-05-02T23:24:39.328Z,11.30
2019-05-02T23:27:13.334Z,11.25
2019-05-02T23:29:43.289Z,11.42
2019-05-02T23:32:14.787Z,11.19
2019-05-02T23:34:44.427Z,11.03
2019-05-02T23:37:14.159Z,11.04
2019-05-02T23:39:43.941Z,11.14
2019-05-02T23:42:13.707Z,11.13
2019-05-02T23:44:43.424Z,11.06
2019-05-02T23:47:13.028Z,11.01
2019-05-02T23:49:45.951Z,11.38
2019-05-02T23:52:15.681Z,11.29
2019-05-02T23:54:51.763Z,11.25
2019-05-02T23:57:16.749Z,11.21
2019-05-02T23:59:46.515Z,11.32
